Latest Coastal Weather Observations for Nullarbor

IDS60701

Issued at 1:32 am CDT Wednesday 18 October 2017 (issued every 10 minutes, with the page automatically refreshed every 10 minutes)

About coastal observations | Map of coastal stations | Coastal observations for SA | Marine services | Other Formats
Station Details ID: 018106 Name: NULLARBOR Lat: -31.45 Lon: 130.90 Height: 64.0 m
Data from the previous 72 hours. | See also: Recent months at Nullarbor
Date/Time
CDT
Temp
°C
Wind Pressure Rain since
9am
mm
Weather Cloud Vis
km
Sea
Height
m
Swell
Dir  Spd
kts
Gust
kts
hPa Trend Height
m
Period
s
Dir
18/01:30am 17.5 SE 14 17 1009.9 - 0.0 - Clear 10 - - - -
18/01:00am 17.2 SW 11 14 1011.6 - 0.0 - - 10 - - - -
18/12:30am 17.1 S 11 14 1010.4 - 0.0 - - 10 - - - -
18/12:00am 17.1 S 12 15 1010.7 - 0.0 - Mostly clear 10 - - - -
 
Date/Time
CDT
Temp
°C
Wind Pressure Rain since
9am
mm
Weather Cloud Vis
km
Sea
Height
m
Swell
Dir  Spd
kts
Gust
kts
hPa Trend Height
m
Period
s
Dir
17/11:30pm 17.3 SSW 11 13 1010.8 - 0.0 - - 10 - - - -
17/11:00pm 17.8 S 12 16 1010.4 - 0.0 - - 10 - - - -
17/10:30pm 18.0 SSW 13 17 1010.7 - 0.0 - - 10 - - - -
17/10:00pm 18.2 S 13 17 1010.5 - 0.0 - - 10 - - - -
17/09:30pm 18.3 S 12 15 1010.1 - 0.0 - - 10 - - - -
17/09:00pm 18.6 S 13 17 1009.4 - 0.0 - Cloudy 10 - - - -
17/08:30pm 18.7 SSW 14 18 1009.2 - 0.0 - - 10 - - - -
17/08:00pm 19.1 SSW 13 20 1008.7 - 0.0 - - 10 - - - -
17/07:30pm 20.0 SSW 16 21 1008.3 - 0.0 - - 10 - - - -
17/07:00pm 21.2 SSW 18 24 1007.8 - 0.0 - - 10 - - - -
17/06:30pm 21.5 SSW 19 24 1007.7 - 0.0 - - 10 - - - -
17/06:00pm 22.2 SSW 18 25 1007.4 - 0.0 - Mostly cloudy 10 - - - -
17/05:30pm 23.4 SSW 19 23 1007.0 - 0.0 - - 10 - - - -
17/05:00pm 25.6 SSW 17 21 1006.6 - 0.0 - - 10 - - - -
17/04:30pm 28.8 SSW 17 22 1006.4 - 0.0 - - 10 - - - -
17/04:00pm 30.4 SSW 18 22 1006.5 - 0.0 - - 10 - - - -
17/03:30pm 32.9 SSW 22 28 1006.2 - 0.0 - - 10 - - - -
17/03:21pm 33.5 W 14 25 1006.2 - 0.0 - - 10 - - - -
17/03:00pm 38.0 N 18 25 1006.3 - 0.0 - - 10 - - - -
17/02:30pm 37.4 NNW 17 27 1006.8 - 0.0 - - 10 - - - -
17/02:10pm 38.0 N 19 30 1007.1 - 0.0 - - 10 - - - -
17/02:00pm 37.1 NNW 19 27 1007.3 - 0.0 - - 10 - - - -
17/01:56pm 38.3 NNW 19 27 1007.2 - 0.0 - - 10 - - - -
17/01:53pm 37.1 NNW 20 28 1007.3 - 0.0 - - 10 - - - -
17/01:38pm 37.4 N 21 31 1007.3 - 0.0 - - 10 - - - -
17/01:30pm 37.0 N 21 29 1007.4 - 0.0 - - 10 - - - -
17/01:05pm 36.5 N 22 33 1007.9 - 0.0 - - 10 - - - -
17/01:00pm 37.1 N 22 31 1007.9 - 0.0 - - 10 - - - -
17/12:54pm 36.5 N 21 31 1008.0 - 0.0 - - 10 - - - -
17/12:30pm 36.2 N 23 31 1008.1 - 0.0 - - 10 - - - -
17/12:00pm 33.0 N 26 36 1008.5 - 0.0 - - 10 - - - -
17/11:50am 34.1 N 26 36 1008.6 - 0.0 - - 10 - - - -
17/11:30am 34.0 N 27 35 1008.7 - 0.0 - - 10 - - - -
17/11:06am 33.6 N 26 39 1008.7 - 0.0 - - 10 - - - -
17/11:00am 32.8 N 25 32 1008.8 - 0.0 - - 10 - - - -
17/10:39am 30.8 N 23 33 1009.1 - 0.0 - - 10 - - - -
17/10:30am 30.5 N 27 35 1009.2 - 0.0 - - 10 - - - -
17/10:20am 32.8 NNE 25 36 1008.9 - 0.0 - - 10 - - - -
17/10:00am 31.5 NNE 28 35 1008.5 - 0.0 - - 10 - - - -
17/09:31am 29.4 NNE 26 36 1008.3 - 0.0 - - 10 - - - -
17/09:30am 29.2 NNE 26 34 1008.3 - 0.0 - - 10 - - - -
17/09:12am 28.0 NNE 24 34 1008.6 - 0.0 - - 10 - - - -
17/09:00am 27.5 NNE 22 31 1008.5 - 0.0 - - 10 - - - -
17/08:30am 25.3 NNE 22 29 1008.5 - 0.0 - - 10 - - - -
17/08:00am 23.3 NNE 19 24 1008.3 - 0.0 - - 10 - - - -
17/07:30am 22.2 NNE 18 23 1007.8 - 0.0 - - 10 - - - -
17/07:00am 21.6 NNE 18 24 1007.2 - 0.0 - - 10 - - - -
17/06:30am 21.4 NNE 17 23 1007.2 - 0.0 - - 10 - - - -
17/06:00am 21.3 NNE 17 21 1006.8 - 0.0 - - 10 - - - -
17/05:30am 21.3 NE 15 20 1007.0 - 0.0 - - 10 - - - -
17/05:00am 21.6 NE 17 22 1006.7 - 0.0 - - 10 - - - -
17/04:30am 22.1 NNE 17 21 1006.4 - 0.0 - - 10 - - - -
17/04:00am 21.4 NNE 14 18 1007.1 - 0.0 - - 10 - - - -
17/03:30am 21.2 NE 14 19 1006.9 - 0.0 - - 10 - - - -
17/03:00am 22.3 NNE 14 17 1007.4 - 0.0 - - 10 - - - -
17/02:30am 23.2 NNE 14 17 1007.8 - 0.0 - - 10 - - - -
17/02:00am 23.0 NNE 14 19 1007.9 - 0.0 - - 10 - - - -
17/01:30am 23.3 NNE 17 21 1007.8 - 0.0 - - 10 - - - -
17/01:00am 22.3 NNE 13 16 1008.7 - 0.0 - - 10 - - - -
17/12:30am 21.6 NNE 11 13 1009.3 - 0.0 - - 10 - - - -
17/12:00am 22.3 NNE 11 12 1009.9 - 0.0 - - 10 - - - -
 
Date/Time
CDT
Temp
°C
Wind Pressure Rain since
9am
mm
Weather Cloud Vis
km
Sea
Height
m
Swell
Dir  Spd
kts
Gust
kts
hPa Trend Height
m
Period
s
Dir
16/11:30pm 21.9 NNE 10 11 1010.0 - 0.0 - - 10 - - - -
16/11:00pm 22.8 NNE 10 13 1010.1 - 0.0 - - 10 - - - -
16/10:30pm 22.8 NE 11 13 1010.0 - 0.0 - - 10 - - - -
16/10:00pm 23.2 NE 10 11 1010.1 - 0.0 - - 10 - - - -
16/09:30pm 25.2 NNE 11 12 1009.8 - 0.0 - - 10 - - - -
16/09:00pm 25.1 NNE 9 11 1009.4 - 0.0 - - 10 - - - -
16/08:30pm 28.3 NNE 10 13 1009.0 - 0.0 - - 10 - - - -
16/08:00pm 30.7 NE 13 17 1008.6 - 0.0 - - 10 - - - -
16/07:30pm 32.2 NNE 15 20 1008.4 - 0.0 - - 10 - - - -
16/07:00pm 33.5 NNE 17 22 1008.4 - 0.0 - - 10 - - - -
16/06:30pm 34.2 NNE 19 24 1008.3 - 0.0 - - 10 - - - -
16/06:01pm 34.9 NNE 18 28 1008.2 - 0.0 - - 10 - - - -
16/06:00pm 34.7 NNE 18 27 1008.2 - 0.0 - - 10 - - - -
16/05:30pm 35.0 NNE 20 29 1008.1 - 0.0 - - 10 - - - -
16/05:05pm 35.2 NNE 18 29 1008.3 - 0.0 - - 10 - - - -
16/05:00pm 35.4 NNE 19 27 1008.4 - 0.0 - - 10 - - - -
16/04:30pm 35.4 NNE 20 28 1008.6 - 0.0 - - 10 - - - -
16/04:19pm 35.6 NNE 19 30 1008.6 - 0.0 - - 10 - - - -
16/04:00pm 35.3 NNE 18 25 1009.0 - 0.0 - - 10 - - - -
16/03:30pm 36.1 NNE 19 29 1009.5 - 0.0 - - 10 - - - -
16/03:04pm 35.4 NNE 19 29 1009.8 - 0.0 - - 10 - - - -
16/03:00pm 34.7 NNE 19 26 1009.9 - 0.0 - - 10 - - - -
16/02:30pm 34.7 NNE 19 27 1010.7 - 0.0 - - 10 - - - -
16/02:00pm 34.2 NNE 20 28 1011.3 - 0.0 - - 10 - - - -
16/01:45pm 34.1 NNE 19 27 1011.6 - 0.0 - - 10 - - - -
16/01:41pm 33.1 NNE 19 28 1011.6 - 0.0 - - 10 - - - -
16/01:32pm 34.0 N 18 28 1011.8 - 0.0 - - 10 - - - -
16/01:30pm 33.5 N 19 28 1011.9 - 0.0 - - 10 - - - -
16/01:00pm 33.1 NNE 20 29 1012.4 - 0.0 - - 10 - - - -
16/12:58pm 33.5 NNE 19 29 1012.4 - 0.0 - - 10 - - - -
16/12:30pm 32.2 NNE 19 27 1013.0 - 0.0 - - 10 - - - -
16/12:11pm 31.7 NNE 18 28 1013.2 - 0.0 - - 10 - - - -
16/12:00pm 32.9 NNE 19 26 1013.3 - 0.0 - - 10 - - - -
16/11:30am 31.4 NNE 21 26 1013.7 - 0.0 - - 10 - - - -
16/11:01am 30.5 NNE 20 30 1014.0 - 0.0 - - 10 - - - -
16/11:00am 30.8 NNE 20 26 1014.0 - 0.0 - - 10 - - - -
16/10:30am 29.3 NNE 22 29 1014.5 - 0.0 - - 10 - - - -
16/10:00am 27.9 NNE 18 27 1014.7 - 0.0 - - 10 - - - -
16/09:30am 25.7 NE 18 24 1014.9 - 0.0 - - 10 - - - -
16/09:00am 23.5 NE 15 20 1015.0 - 0.0 - - 10 - - - -
16/08:30am 20.6 NE 15 19 1015.0 - 0.0 - - 10 - - - -
16/08:00am 17.7 NE 13 16 1014.9 - 0.0 - - 10 - - - -
16/07:30am 15.3 NE 12 16 1014.6 - 0.0 - - 10 - - - -
16/07:00am 14.7 NE 11 13 1014.3 - 0.0 - - 10 - - - -
16/06:30am 14.4 NE 10 12 1014.3 - 0.0 - - 10 - - - -
16/06:00am 15.1 NE 10 12 1014.2 - 0.0 - - 10 - - - -
16/05:30am 15.3 NE 10 12 1013.9 - 0.0 - - 10 - - - -
16/05:00am 14.7 ENE 11 13 1014.0 - 0.0 - - 10 - - - -
16/04:30am 13.6 NE 10 11 1014.1 - 0.0 - - 10 - - - -
16/04:00am 13.7 ENE 10 10 1014.2 - 0.0 - - 10 - - - -
16/03:30am 13.8 ENE 10 12 1014.4 - 0.0 - - 10 - - - -
16/03:00am 13.9 ENE 10 11 1014.6 - 0.0 - Mostly cloudy 10 - - - -
16/02:30am 12.0 ENE 9 10 1015.0 - 0.0 - - 10 - - - -
16/02:00am 13.4 E 9 10 1015.3 - 0.0 - - 10 - - - -
16/01:30am 14.5 E 9 10 1015.5 - 0.0 - - 10 - - - -
16/01:00am 14.6 E 9 10 1015.7 - 0.0 - - 10 - - - -
16/12:30am 15.4 E 8 9 1015.8 - 0.0 - - 10 - - - -
16/12:00am 16.2 ESE 9 10 1016.0 - 0.0 - Mostly cloudy 10 - - - -
 
Date/Time
CDT
Temp
°C
Wind Pressure Rain since
9am
mm
Weather Cloud Vis
km
Sea
Height
m
Swell
Dir  Spd
kts
Gust
kts
hPa Trend Height
m
Period
s
Dir
15/11:30pm 16.5 E 8 10 1016.2 - 0.0 - - 10 - - - -
15/11:00pm 17.2 ESE 10 11 1016.3 - 0.0 - - 10 - - - -
15/10:30pm 18.1 ESE 11 13 1016.2 - 0.0 - - 10 - - - -
15/10:00pm 18.7 ESE 13 16 1016.1 - 0.0 - - 10 - - - -
15/09:30pm 19.4 ESE 13 16 1015.9 - 0.0 - - 10 - - - -
15/09:00pm 19.7 ESE 14 19 1015.6 - 0.0 - Partly cloudy 10 - - - -
15/08:30pm 20.0 SE 15 19 1015.1 - 0.0 - - 10 - - - -
15/08:00pm 20.3 SE 16 20 1015.0 - 0.0 - - 10 - - - -
15/07:30pm 22.0 ESE 18 23 1014.6 - 0.0 - - 10 - - - -
15/07:00pm 23.4 ESE 20 25 1014.6 - 0.0 - - 10 - - - -
15/06:30pm 24.5 ESE 19 25 1014.4 - 0.0 - - 10 - - - -
15/06:00pm 26.0 SE 20 26 1014.4 - 0.0 - - 10 - - - -
15/05:30pm 27.2 SE 20 25 1014.4 - 0.0 - - 10 - - - -
15/05:00pm 26.8 SE 19 24 1014.5 - 0.0 - - 10 - - - -
15/04:30pm 28.6 SE 18 24 1014.6 - 0.0 - - 10 - - - -
15/04:00pm 29.1 SE 18 22 1014.7 - 0.0 - - 10 - - - -
15/03:30pm 30.1 SE 17 21 1015.0 - 0.0 - - 10 - - - -
15/03:00pm 31.5 ESE 16 24 1015.0 - 0.0 - - 10 - - - -
15/02:30pm 31.4 ENE 11 19 1015.5 - 0.0 - - 10 - - - -
15/02:00pm 31.5 ENE 12 23 1015.8 - 0.0 - - 10 - - - -
15/01:30pm 30.4 NE 13 21 1016.3 - 0.0 - - 10 - - - -
15/01:00pm 30.6 NNE 14 22 1016.7 - 0.0 - - 10 - - - -
15/12:30pm 30.2 NE 14 20 1017.2 - 0.0 - - 10 - - - -
15/12:00pm 28.7 NE 17 23 1017.7 - 0.0 - - 10 - - - -
15/11:30am 28.0 NE 17 23 1018.0 - 0.0 - - 10 - - - -
15/11:00am 26.6 NE 15 22 1018.4 - 0.0 - - 10 - - - -
15/10:30am 25.7 NE 16 21 1018.6 - 0.0 - - 10 - - - -
15/10:00am 24.9 NE 16 20 1018.4 - 0.0 - - 10 - - - -
15/09:30am 23.4 NE 15 21 1018.5 - 0.0 - - 10 - - - -
15/09:00am 20.7 ENE 12 17 1018.5 - 0.0 - - 10 - - - -
15/08:30am 16.7 ENE 9 11 1018.5 - 0.0 - - 10 - - - -
15/08:00am 14.2 E 7 8 1018.2 - 0.0 - - 10 - - - -
15/07:30am 11.9 E 7 8 1017.8 - 0.0 - - 10 - - - -
15/07:00am 10.7 ESE 9 10 1017.5 - 0.0 - - 10 - - - -
15/06:30am 10.8 E 8 9 1017.5 - 0.0 - - 10 - - - -
15/06:00am 10.9 E 8 9 1017.2 - 0.0 - - 10 - - - -
15/05:30am 10.9 E 8 9 1016.9 - 0.0 - - 10 - - - -
15/05:00am 11.0 ESE 9 10 1016.7 - 0.0 - - 10 - - - -
15/04:38am 10.4 E 7 8 1016.9 - 0.0 - - 9 - - - -
15/04:30am 10.3 E 7 9 1017.0 - 0.0 - - 8 - - - -
15/04:17am 10.3 ESE 7 9 1016.9 - 0.0 - - 7 - - - -
15/04:00am 10.8 ESE 8 9 1017.0 - 0.0 - - 9 - - - -
15/03:30am 11.0 SE 8 9 1017.3 - 0.0 - - 9 - - - -
15/03:00am 11.1 SE 9 9 1017.6 - 0.0 - - 9 - - - -
15/02:30am 11.6 SE 7 8 1018.0 - 0.0 - - 10 - - - -
15/02:00am 12.5 SE 7 9 1018.5 - 0.0 - - 10 - - - -

Other Formats:

Comma delimited format used in spreadsheet applications
http://www.bom.gov.au/fwo/IDS60701/IDS60701.94651.axf

JavaScript Object Notation format (JSON) in row-major order
http://www.bom.gov.au/fwo/IDS60701/IDS60701.94651.json